createdAt,value
2022-08-03T00:03:34.929Z,20.19
2022-08-03T00:08:37.656Z,19.46
2022-08-03T00:13:42.567Z,18.88
2022-08-03T00:18:44.776Z,19.63
2022-08-03T00:23:51.184Z,22.29
2022-08-03T00:28:54.058Z,22.58
2022-08-03T00:33:59.643Z,20.83
2022-08-03T00:39:05.064Z,19.75
2022-08-03T00:44:06.943Z,19.06
2022-08-03T00:49:08.900Z,19.74
2022-08-03T00:54:11.115Z,22.39
2022-08-03T00:59:15.897Z,22.68
2022-08-03T01:04:17.726Z,20.90
2022-08-03T01:09:49.838Z,19.76
2022-08-03T01:15:05.816Z,18.94
2022-08-03T01:20:13.331Z,19.71
2022-08-03T01:26:10.190Z,22.26
2022-08-03T01:31:18.391Z,22.24
2022-08-03T01:36:24.736Z,20.41
2022-08-03T01:41:33.499Z,19.26
2022-08-03T01:46:37.265Z,18.48
2022-08-03T01:51:58.642Z,19.18
2022-08-03T01:57:07.550Z,21.66
2022-08-03T02:02:27.704Z,21.84
2022-08-03T02:07:39.445Z,19.96
2022-08-03T02:12:46.009Z,18.86
2022-08-03T02:17:50.063Z,19.30
2022-08-03T02:22:52.150Z,21.69
2022-08-03T02:28:13.688Z,21.96
2022-08-03T02:33:28.162Z,20.11
2022-08-03T02:38:38.403Z,18.98
2022-08-03T02:44:00.352Z,18.31
2022-08-03T02:49:40.848Z,19.31
2022-08-03T02:54:30.200Z,22.02
2022-08-03T02:59:32.649Z,22.29
2022-08-03T03:04:36.046Z,20.56
2022-08-03T03:09:40.409Z,19.44
2022-08-03T03:14:45.844Z,18.70
2022-08-03T03:19:51.901Z,18.21
2022-08-03T03:24:55.917Z,19.06
2022-08-03T03:29:58.240Z,21.91
2022-08-03T03:35:01.559Z,22.34
2022-08-03T03:40:04.756Z,20.62
2022-08-03T03:45:08.279Z,19.49
2022-08-03T03:50:10.790Z,18.74
2022-08-03T03:55:17.626Z,19.47
2022-08-03T04:00:19.644Z,22.17
2022-08-03T04:05:44.247Z,22.55
2022-08-03T04:11:14.521Z,20.74
2022-08-03T04:16:21.894Z,19.66
2022-08-03T04:21:25.541Z,19.04
2022-08-03T04:26:33.804Z,19.77
2022-08-03T04:31:38.060Z,22.42
2022-08-03T04:36:49.900Z,23.29
2022-08-03T04:42:07.312Z,21.79
2022-08-03T04:47:10.551Z,20.45
2022-08-03T04:52:13.105Z,19.74
2022-08-03T04:57:22.269Z,20.30
2022-08-03T05:02:25.487Z,22.80
2022-08-03T05:07:36.191Z,23.20
2022-08-03T05:12:39.480Z,21.59
2022-08-03T05:17:41.592Z,20.67
2022-08-03T05:22:43.643Z,20.11
2022-08-03T05:27:45.629Z,20.96
2022-08-03T05:32:47.748Z,23.72
2022-08-03T05:37:54.398Z,23.57
2022-08-03T05:42:57.103Z,22.53
2022-08-03T05:48:00.102Z,22.05
2022-08-03T05:53:02.930Z,21.73
2022-08-03T05:58:05.182Z,21.69
2022-08-03T06:03:07.171Z,21.75
2022-08-03T06:08:09.066Z,21.82
2022-08-03T06:13:11.030Z,21.82
2022-08-03T06:18:13.099Z,21.81
2022-08-03T06:23:15.290Z,21.88
2022-08-03T06:28:51.396Z,22.02
2022-08-03T06:34:30.782Z,22.11
2022-08-03T06:39:04.987Z,22.11
2022-08-03T06:44:06.830Z,22.44
2022-08-03T06:49:08.972Z,25.25
2022-08-03T06:54:12.014Z,26.60
2022-08-03T07:00:10.527Z,25.74
2022-08-03T07:04:35.941Z,25.34
2022-08-03T07:09:37.837Z,25.07
2022-08-03T07:14:39.701Z,24.69
2022-08-03T07:19:41.680Z,24.32
2022-08-03T07:24:44.487Z,24.12
2022-08-03T07:29:46.455Z,24.27
2022-08-03T07:34:48.227Z,24.55
2022-08-03T07:39:50.114Z,24.85
2022-08-03T07:44:51.982Z,25.11
2022-08-03T07:49:54.685Z,25.41
2022-08-03T07:54:56.566Z,25.87
2022-08-03T08:00:02.209Z,26.45
2022-08-03T08:05:06.177Z,26.84
2022-08-03T08:10:10.237Z,27.03
2022-08-03T08:15:12.873Z,27.14
2022-08-03T08:20:31.722Z,27.25
2022-08-03T08:25:34.860Z,27.30
2022-08-03T08:30:36.753Z,27.27
2022-08-03T08:35:38.717Z,27.18
2022-08-03T08:40:41.002Z,27.18
2022-08-03T08:45:44.991Z,27.22
2022-08-03T08:50:48.142Z,27.29
2022-08-03T08:55:56.952Z,27.26
2022-08-03T09:01:02.823Z,27.36
2022-08-03T09:06:05.135Z,27.65
2022-08-03T09:11:07.459Z,27.78
2022-08-03T09:16:20.576Z,27.97
2022-08-03T09:21:32.792Z,28.29
2022-08-03T09:26:38.056Z,28.52
2022-08-03T09:31:46.110Z,28.63
2022-08-03T09:36:53.492Z,28.67
2022-08-03T09:42:07.091Z,28.97
2022-08-03T09:47:16.186Z,29.18
2022-08-03T09:52:38.613Z,29.35
2022-08-03T09:57:45.937Z,29.75
2022-08-03T10:02:50.264Z,29.99
2022-08-03T10:07:52.135Z,29.99
2022-08-03T10:12:54.257Z,29.98
2022-08-03T10:17:56.968Z,29.97
2022-08-03T10:23:00.124Z,29.91
2022-08-03T10:28:04.394Z,29.91
2022-08-03T10:33:49.744Z,30.27
2022-08-03T10:38:57.570Z,30.47
2022-08-03T10:44:09.229Z,30.44
2022-08-03T10:49:21.439Z,30.35
2022-08-03T10:54:36.901Z,30.59
2022-08-03T10:59:50.652Z,30.71
2022-08-03T11:05:34.619Z,30.40
2022-08-03T11:10:38.235Z,30.21
2022-08-03T11:15:45.700Z,30.31
2022-08-03T11:20:57.409Z,30.56
2022-08-03T11:26:19.086Z,30.72
2022-08-03T11:31:48.755Z,30.97
2022-08-03T11:37:25.223Z,31.35
2022-08-03T11:42:29.243Z,31.84
2022-08-03T11:47:31.116Z,32.14
2022-08-03T11:52:39.948Z,32.58
2022-08-03T11:59:02.706Z,33.05
2022-08-03T12:03:13.656Z,33.51
2022-08-03T12:08:27.898Z,33.81
2022-08-03T12:14:45.437Z,33.90
2022-08-03T12:19:12.900Z,33.65
2022-08-03T12:24:15.409Z,33.41
2022-08-03T12:29:22.744Z,33.66
2022-08-03T12:34:47.020Z,33.94
2022-08-03T12:40:01.722Z,33.96
2022-08-03T12:45:28.543Z,33.61
2022-08-03T12:50:37.094Z,33.85
2022-08-03T12:56:04.729Z,34.44
2022-08-03T13:01:09.517Z,35.12
2022-08-03T13:06:19.908Z,35.26
2022-08-03T13:11:57.341Z,35.49
2022-08-03T13:16:49.751Z,35.90
2022-08-03T13:22:03.071Z,36.40
2022-08-03T13:27:59.417Z,36.52
2022-08-03T13:32:29.781Z,36.47
2022-08-03T13:37:32.112Z,36.18
2022-08-03T13:42:35.967Z,36.07
2022-08-03T13:47:37.899Z,36.28
2022-08-03T13:52:39.738Z,36.47
2022-08-03T13:58:04.905Z,35.98
2022-08-03T14:03:17.598Z,35.51
2022-08-03T14:08:19.577Z,35.47
2022-08-03T14:13:22.275Z,35.89
2022-08-03T14:18:28.346Z,36.60
2022-08-03T14:23:39.373Z,37.06
2022-08-03T14:28:41.533Z,37.37
2022-08-03T14:33:43.712Z,37.50
2022-08-03T14:38:46.013Z,37.56
2022-08-03T14:44:01.643Z,37.47
2022-08-03T14:50:36.977Z,37.49
2022-08-03T14:54:30.540Z,37.35
2022-08-03T14:59:56.207Z,37.23
2022-08-03T15:04:54.471Z,37.51
2022-08-03T15:09:56.452Z,37.72
2022-08-03T15:14:58.322Z,38.02
2022-08-03T15:20:26.504Z,38.32
2022-08-03T15:26:30.239Z,38.25
2022-08-03T15:30:44.095Z,38.06
2022-08-03T15:35:47.104Z,38.01
2022-08-03T15:40:49.082Z,38.18
2022-08-03T15:46:18.972Z,38.24
2022-08-03T15:51:13.825Z,38.29
2022-08-03T15:56:18.717Z,38.39
2022-08-03T16:01:24.731Z,38.05
2022-08-03T16:06:29.797Z,37.59
2022-08-03T16:11:37.833Z,37.47
2022-08-03T16:16:40.729Z,37.59
2022-08-03T16:21:48.394Z,37.68
2022-08-03T16:26:50.931Z,37.65
2022-08-03T16:31:53.011Z,37.40
2022-08-03T16:36:55.017Z,36.78
2022-08-03T16:42:00.927Z,36.09
2022-08-03T16:47:04.300Z,35.76
2022-08-03T16:52:07.319Z,35.60
2022-08-03T16:57:09.484Z,35.51
2022-08-03T17:02:26.147Z,35.74
2022-08-03T17:07:29.701Z,35.87
2022-08-03T17:12:32.404Z,35.90
2022-08-03T17:17:53.547Z,35.82
2022-08-03T17:23:33.862Z,35.69
2022-08-03T17:28:56.469Z,35.34
2022-08-03T17:34:04.625Z,34.77
2022-08-03T17:39:09.025Z,34.22
2022-08-03T17:44:15.308Z,33.52
2022-08-03T17:49:23.764Z,32.72
2022-08-03T17:55:56.042Z,32.05
2022-08-03T18:01:04.789Z,31.32
2022-08-03T18:06:34.936Z,30.62
2022-08-03T18:11:45.293Z,30.03
2022-08-03T18:16:57.525Z,29.53
2022-08-03T18:22:04.466Z,29.16
2022-08-03T18:27:10.216Z,28.78
2022-08-03T18:32:16.912Z,28.55
2022-08-03T18:37:26.013Z,28.30
2022-08-03T18:42:28.286Z,27.97
2022-08-03T18:47:56.721Z,27.60
2022-08-03T18:54:02.309Z,27.24
2022-08-03T18:59:30.125Z,26.87
2022-08-03T19:04:38.718Z,26.52
2022-08-03T19:10:05.746Z,26.25
2022-08-03T19:15:13.240Z,26.03
2022-08-03T19:20:20.612Z,25.80
2022-08-03T19:25:34.467Z,25.55
2022-08-03T19:30:39.528Z,25.33
2022-08-03T19:35:55.795Z,25.15
2022-08-03T19:41:05.233Z,24.96
2022-08-03T19:46:13.583Z,24.78
2022-08-03T19:51:16.620Z,24.61
2022-08-03T19:56:23.679Z,24.36
2022-08-03T20:01:28.944Z,24.02
2022-08-03T20:06:31.666Z,23.69
2022-08-03T20:11:43.910Z,23.49
2022-08-03T20:16:48.821Z,23.31
2022-08-03T20:21:54.376Z,23.18
2022-08-03T20:27:05.196Z,23.06
2022-08-03T20:32:10.015Z,22.98
2022-08-03T20:37:12.291Z,22.93
2022-08-03T20:42:14.303Z,22.81
2022-08-03T20:47:24.692Z,22.61
2022-08-03T20:52:29.042Z,22.44
2022-08-03T20:57:33.183Z,22.19
2022-08-03T21:02:35.966Z,21.95
2022-08-03T21:07:45.721Z,21.78
2022-08-03T21:13:23.198Z,21.60
2022-08-03T21:18:27.631Z,21.47
2022-08-03T21:23:47.558Z,21.42
2022-08-03T21:28:55.881Z,21.38
2022-08-03T21:34:04.706Z,21.34
2022-08-03T21:39:10.439Z,21.15
2022-08-03T21:44:12.548Z,20.91
2022-08-03T21:50:05.268Z,20.57
2022-08-03T21:54:41.760Z,20.39
2022-08-03T21:59:56.679Z,20.36
2022-08-03T22:04:58.907Z,20.25
2022-08-03T22:10:06.074Z,20.19
2022-08-03T22:15:11.880Z,20.09
2022-08-03T22:20:14.912Z,20.00
2022-08-03T22:25:17.041Z,20.92
2022-08-03T22:30:20.172Z,23.29
2022-08-03T22:35:25.389Z,23.58
2022-08-03T22:40:28.292Z,21.98
2022-08-03T22:46:09.888Z,21.16
2022-08-03T22:50:52.929Z,20.75
2022-08-03T22:55:56.264Z,20.29
2022-08-03T23:01:05.690Z,19.81
2022-08-03T23:06:09.335Z,19.47
2022-08-03T23:11:12.315Z,20.37
2022-08-03T23:16:27.956Z,23.08
2022-08-03T23:21:53.198Z,23.76
2022-08-03T23:26:56.765Z,22.21
2022-08-03T23:32:01.821Z,21.30
2022-08-03T23:37:05.637Z,20.51
2022-08-03T23:42:09.626Z,19.77
2022-08-03T23:47:13.675Z,19.24
2022-08-03T23:52:57.399Z,19.96
2022-08-03T23:58:12.148Z,22.83
